Time;durP1;ratioP1;P1;durP2;ratioP2;P2;SDS_P1;SDS_P2;PMS_P1;PMS_P2;Temp;Humidity;BMP_temperature;BMP_pressure;BME280_temperature;BME280_humidity;BME280_pressure;Samples;Min_cycle;Max_cycle;Signal;HPM_P1;HPM_P2
2020/12/06 00:01:37;;;;;;;51.80;28.92;;;3.60;99.90;;;;;;5114288;28;20090;-67
2020/12/06 00:04:07;;;;;;;50.53;29.00;;;3.60;99.90;;;;;;5114144;28;20127;-67
2020/12/06 00:06:32;;;;;;;55.40;29.80;;;3.60;99.90;;;;;;5097201;28;20119;-67
2020/12/06 00:08:58;;;;;;;49.80;27.93;;;3.60;99.90;;;;;;5114819;28;20480;-67
2020/12/06 00:11:24;;;;;;;56.72;31.40;;;3.60;99.90;;;;;;5115381;28;20024;-65
2020/12/06 00:13:50;;;;;;;51.80;28.53;;;3.60;99.90;;;;;;5115240;28;20027;-65
2020/12/06 00:16:17;;;;;;;54.03;30.10;;;3.60;99.90;;;;;;5114233;28;20028;-66
2020/12/06 00:18:44;;;;;;;56.22;28.45;;;3.60;99.90;;;;;;5115258;28;20475;-66
2020/12/06 00:21:11;;;;;;;52.42;29.13;;;3.60;99.90;;;;;;5115375;28;20445;-66
2020/12/06 00:23:37;;;;;;;51.00;27.40;;;3.60;99.90;;;;;;5114277;28;20357;-66
2020/12/06 00:26:02;;;;;;;52.63;28.60;;;3.60;99.90;;;;;;5095739;28;20038;-66
2020/12/06 00:28:28;;;;;;;51.10;27.53;;;3.60;99.90;;;;;;5113803;28;20024;-66
2020/12/06 00:30:53;;;;;;;50.90;27.70;;;3.70;99.90;;;;;;5114150;28;20027;-66
2020/12/06 00:33:19;;;;;;;49.77;26.40;;;3.70;99.90;;;;;;5113736;28;20024;-66
2020/12/06 00:35:45;;;;;;;48.80;26.50;;;3.70;99.90;;;;;;5113680;28;20376;-66
2020/12/06 00:38:10;;;;;;;48.23;27.37;;;3.70;99.90;;;;;;5113636;28;20117;-66
2020/12/06 00:40:36;;;;;;;48.73;26.53;;;3.70;99.90;;;;;;5113613;28;20023;-66
2020/12/06 00:43:01;;;;;;;55.23;28.10;;;3.70;99.90;;;;;;5113607;28;20015;-66
2020/12/06 00:45:27;;;;;;;48.80;26.63;;;3.70;99.90;;;;;;5113724;28;20041;-66
2020/12/06 00:47:53;;;;;;;48.00;27.23;;;3.70;99.90;;;;;;5113935;28;20119;-66
2020/12/06 00:50:18;;;;;;;51.10;27.63;;;3.80;99.90;;;;;;5113770;28;20107;-68
2020/12/06 00:52:44;;;;;;;45.20;26.27;;;3.80;99.90;;;;;;5117400;28;20102;-67
2020/12/06 00:55:09;;;;;;;49.63;26.80;;;3.90;99.90;;;;;;5117751;28;20023;-67
2020/12/06 00:57:35;;;;;;;48.37;26.67;;;3.90;99.90;;;;;;5117898;28;20015;-67
2020/12/06 01:00:02;;;;;;;51.00;26.23;;;4.00;99.90;;;;;;5117899;28;20099;-67
2020/12/06 01:02:28;;;;;;;47.08;26.00;;;4.00;99.90;;;;;;5120126;28;20107;-66
2020/12/06 01:04:54;;;;;;;44.90;25.47;;;4.00;99.90;;;;;;5117853;28;20023;-66
2020/12/06 01:07:19;;;;;;;48.57;26.13;;;4.10;99.90;;;;;;5117682;28;20141;-67
2020/12/06 01:09:45;;;;;;;48.13;26.43;;;4.10;99.90;;;;;;5117944;28;20054;-66
2020/12/06 01:12:10;;;;;;;49.27;26.87;;;4.10;99.90;;;;;;5117549;28;20019;-66
2020/12/06 01:14:36;;;;;;;53.07;27.77;;;4.10;99.90;;;;;;5117421;28;20035;-66
2020/12/06 01:17:01;;;;;;;51.03;27.93;;;4.10;99.90;;;;;;5117720;28;20019;-66
2020/12/06 01:19:28;;;;;;;46.80;26.70;;;4.10;99.90;;;;;;5117552;28;20553;-67
2020/12/06 01:21:54;;;;;;;52.28;27.08;;;4.10;99.90;;;;;;5117276;28;20094;-66
2020/12/06 01:24:20;;;;;;;57.00;30.83;;;4.10;99.90;;;;;;5117339;28;20074;-66
2020/12/06 01:26:46;;;;;;;;;;;4.10;99.90;;;;;;5118019;28;20263;-66
2020/12/06 01:29:12;;;;;;;49.90;25.67;;;4.10;99.90;;;;;;5117490;28;19903;-66
2020/12/06 01:31:38;;;;;;;51.30;27.17;;;4.10;99.90;;;;;;5099131;28;20476;-65
2020/12/06 01:34:03;;;;;;;55.10;27.47;;;4.10;99.90;;;;;;5099184;28;20028;-65
2020/12/06 01:36:29;;;;;;;52.20;26.83;;;4.10;99.90;;;;;;5117645;28;20055;-65
2020/12/06 01:38:55;;;;;;;45.33;25.33;;;4.20;99.90;;;;;;5099158;28;20020;-66
2020/12/06 01:41:20;;;;;;;46.17;25.67;;;4.20;99.90;;;;;;5117099;28;20020;-66
2020/12/06 01:43:54;;;;;;;44.17;24.30;;;4.20;99.90;;;;;;5117056;28;20075;-66
2020/12/06 01:46:20;;;;;;;45.05;23.45;;;4.20;99.90;;;;;;5116881;28;20361;-66
2020/12/06 01:48:45;;;;;;;43.90;24.00;;;4.20;99.90;;;;;;5098544;28;20030;-66
2020/12/06 01:51:11;;;;;;;45.70;25.20;;;4.20;99.90;;;;;;5117107;28;20024;-65
2020/12/06 01:53:37;;;;;;;45.27;23.80;;;4.20;99.90;;;;;;5116984;28;20380;-65
2020/12/06 01:56:03;;;;;;;48.43;26.00;;;4.20;99.90;;;;;;5116571;28;20024;-65
2020/12/06 01:58:28;;;;;;;47.37;24.67;;;4.20;99.90;;;;;;5116664;28;20449;-65
2020/12/06 02:00:54;;;;;;;47.45;25.50;;;4.30;99.90;;;;;;5116662;28;20024;-65
2020/12/06 02:03:20;;;;;;;50.77;25.63;;;4.30;99.90;;;;;;5116426;28;20375;-65
2020/12/06 02:05:45;;;;;;;46.77;23.57;;;4.20;99.90;;;;;;5098711;28;20031;-65
2020/12/06 02:08:12;;;;;;;42.53;24.03;;;4.20;99.90;;;;;;5116936;28;20027;-65
2020/12/06 02:10:38;;;;;;;49.05;24.60;;;4.30;99.90;;;;;;5116528;28;20106;-66
2020/12/06 02:13:03;;;;;;;41.83;23.77;;;4.30;99.90;;;;;;5116558;28;20055;-65
2020/12/06 02:15:29;;;;;;;43.40;23.50;;;4.30;99.90;;;;;;5116316;28;20077;-66
2020/12/06 02:17:54;;;;;;;40.50;22.53;;;4.30;99.90;;;;;;5116854;28;20108;-66
2020/12/06 02:20:21;;;;;;;41.37;22.57;;;4.30;99.90;;;;;;5116179;28;20042;-66
2020/12/06 02:22:46;;;;;;;42.03;23.15;;;4.30;99.90;;;;;;5116183;28;20468;-66
2020/12/06 02:25:12;;;;;;;38.40;21.07;;;4.30;99.90;;;;;;5116126;28;20028;-66
2020/12/06 02:27:38;;;;;;;44.17;22.23;;;4.30;99.90;;;;;;5116073;28;20034;-66
2020/12/06 02:30:04;;;;;;;43.30;23.27;;;4.30;99.90;;;;;;5116117;28;20034;-66
2020/12/06 02:32:30;;;;;;;38.67;21.70;;;4.30;99.90;;;;;;5116461;28;20045;-66
2020/12/06 02:34:55;;;;;;;43.00;24.23;;;4.30;99.90;;;;;;5115825;28;20028;-66
2020/12/06 02:37:21;;;;;;;48.03;24.63;;;4.20;99.90;;;;;;5097737;28;20024;-66
2020/12/06 02:39:50;;;;;;;46.30;24.70;;;4.10;99.90;;;;;;5115988;28;20055;-66
2020/12/06 02:42:15;;;;;;;44.22;23.30;;;4.20;99.90;;;;;;5115985;28;20020;-66
2020/12/06 02:44:41;;;;;;;50.83;24.50;;;4.20;99.90;;;;;;5097692;28;20016;-66
2020/12/06 02:47:07;;;;;;;48.47;24.60;;;4.20;99.90;;;;;;5117182;28;20035;-66
2020/12/06 02:49:32;;;;;;;47.70;24.03;;;4.20;99.90;;;;;;5116419;28;20028;-66
2020/12/06 02:51:58;;;;;;;45.37;24.53;;;4.20;99.90;;;;;;5116390;28;20410;-67
2020/12/06 02:54:23;;;;;;;45.73;23.77;;;4.30;99.90;;;;;;5097750;28;20151;-66
2020/12/06 02:56:49;;;;;;;47.93;24.80;;;4.30;99.90;;;;;;5116809;28;20076;-66
2020/12/06 02:59:14;;;;;;;43.40;24.73;;;4.30;99.90;;;;;;5098076;28;20051;-66
2020/12/06 03:01:40;;;;;;;41.27;24.27;;;4.30;99.90;;;;;;5115633;28;20442;-66
2020/12/06 03:04:06;;;;;;;43.97;24.63;;;4.30;99.90;;;;;;5116521;28;20015;-66
2020/12/06 03:06:31;;;;;;;45.30;24.40;;;4.30;99.90;;;;;;5115696;28;20410;-66
2020/12/06 03:08:57;;;;;;;45.60;24.63;;;4.30;99.90;;;;;;5115556;28;20055;-66
2020/12/06 03:11:25;;;;;;;45.10;25.30;;;4.30;99.90;;;;;;5115245;28;20039;-67
2020/12/06 03:13:52;;;;;;;46.03;24.48;;;4.30;99.90;;;;;;5097063;28;20031;-66
2020/12/06 03:16:18;;;;;;;47.92;26.83;;;4.40;99.90;;;;;;5114855;28;20250;-66
2020/12/06 03:18:43;;;;;;;46.30;24.77;;;4.40;99.90;;;;;;5096735;28;20110;-65
2020/12/06 03:21:09;;;;;;;50.10;27.57;;;4.40;99.90;;;;;;5114951;28;20102;-66
2020/12/06 03:23:35;;;;;;;46.67;25.35;;;4.30;99.90;;;;;;5114978;28;20047;-66
2020/12/06 03:26:00;;;;;;;47.47;25.37;;;4.20;99.90;;;;;;5114841;28;20032;-66
2020/12/06 03:28:26;;;;;;;47.00;24.73;;;4.20;99.90;;;;;;5115313;28;20272;-65
2020/12/06 03:30:52;;;;;;;50.60;26.27;;;4.20;99.90;;;;;;5115452;28;20384;-67
2020/12/06 03:33:17;;;;;;;53.80;27.10;;;4.20;99.90;;;;;;5115279;28;20125;-67
2020/12/06 03:35:43;;;;;;;53.47;26.13;;;4.20;99.90;;;;;;5096152;28;20118;-67
2020/12/06 03:38:09;;;;;;;46.97;24.87;;;4.20;99.90;;;;;;5114866;28;20031;-67
2020/12/06 03:40:34;;;;;;;54.30;26.50;;;4.10;99.90;;;;;;5114653;28;20030;-67
2020/12/06 03:43:00;;;;;;;61.63;29.30;;;4.20;99.90;;;;;;5114640;28;20078;-67
2020/12/06 03:45:26;;;;;;;58.60;27.33;;;4.20;99.90;;;;;;5114277;28;20035;-67
2020/12/06 03:47:55;;;;;;;58.10;28.47;;;4.20;99.90;;;;;;5114507;28;20032;-67
2020/12/06 03:50:21;;;;;;;59.00;27.48;;;4.20;99.90;;;;;;5114325;28;20023;-67
2020/12/06 03:52:46;;;;;;;57.55;28.48;;;4.20;99.90;;;;;;5114461;28;20023;-67
2020/12/06 03:55:12;;;;;;;55.37;26.67;;;4.30;99.90;;;;;;5114152;28;20039;-67
2020/12/06 03:57:37;;;;;;;56.10;27.43;;;4.20;99.90;;;;;;5114452;28;20077;-67
2020/12/06 04:00:04;;;;;;;59.70;26.90;;;4.20;99.90;;;;;;5095868;28;20027;-67
2020/12/06 04:02:30;;;;;;;55.67;26.90;;;4.10;99.90;;;;;;5114158;28;20080;-67
2020/12/06 04:04:56;;;;;;;57.07;27.47;;;4.20;99.90;;;;;;5096011;28;20118;-67
2020/12/06 04:07:21;;;;;;;56.57;27.30;;;4.20;99.90;;;;;;5114048;28;20091;-68
2020/12/06 04:09:47;;;;;;;55.27;26.77;;;4.20;99.90;;;;;;5095869;28;20019;-67
2020/12/06 04:12:13;;;;;;;57.10;26.47;;;4.20;99.90;;;;;;5114029;28;20066;-67
2020/12/06 04:14:38;;;;;;;54.27;26.50;;;4.20;99.90;;;;;;5113863;28;20096;-68
2020/12/06 04:17:04;;;;;;;56.10;26.67;;;4.20;99.90;;;;;;5113991;28;20019;-67
2020/12/06 04:19:30;;;;;;;56.10;27.17;;;4.20;99.90;;;;;;5095804;28;20030;-66
2020/12/06 04:21:56;;;;;;;62.00;28.07;;;4.30;99.90;;;;;;5113875;28;20099;-67
2020/12/06 04:24:22;;;;;;;57.70;26.77;;;4.30;99.90;;;;;;5113741;28;20020;-66
2020/12/06 04:26:48;;;;;;;55.40;27.03;;;4.30;99.90;;;;;;5112885;28;20438;-67
2020/12/06 04:29:13;;;;;;;53.97;26.33;;;4.50;99.90;;;;;;5113732;28;20136;-67
2020/12/06 04:31:39;;;;;;;50.20;25.17;;;4.50;99.90;;;;;;5113938;28;20253;-67
2020/12/06 04:34:05;;;;;;;50.60;24.97;;;4.40;99.90;;;;;;5114040;28;20020;-67
2020/12/06 04:36:31;;;;;;;47.80;24.43;;;4.40;99.90;;;;;;5114569;28;20392;-67
2020/12/06 04:38:57;;;;;;;46.75;23.67;;;4.60;99.90;;;;;;5095433;28;20027;-67
2020/12/06 04:41:26;;;;;;;48.33;24.60;;;4.80;99.90;;;;;;5095813;28;20023;-67
2020/12/06 04:43:52;;;;;;;46.13;23.65;;;4.90;99.90;;;;;;5113709;28;20019;-67
2020/12/06 04:46:18;;;;;;;;;;;4.80;99.90;;;;;;5113962;28;20059;-67
2020/12/06 04:49:20;;;;;;;43.13;22.35;;;4.60;99.90;;;;;;5113755;28;20352;-66
2020/12/06 04:51:54;;;;;;;45.85;23.45;;;4.50;99.90;;;;;;5095581;28;20539;-66
2020/12/06 04:54:26;;;;;;;47.25;22.88;;;4.50;99.90;;;;;;5114003;28;20023;-66
2020/12/06 04:57:00;;;;;;;46.08;22.98;;;4.50;99.90;;;;;;5095295;28;20538;-66
2020/12/06 04:59:27;;;;;;;46.40;23.35;;;4.40;99.90;;;;;;5113923;28;20358;-66
2020/12/06 05:01:56;;;;;;;43.67;22.42;;;4.40;99.90;;;;;;5113385;28;20384;-66
2020/12/06 05:04:25;;;;;;;45.03;23.00;;;4.30;99.90;;;;;;5095150;28;20046;-66
2020/12/06 05:06:53;;;;;;;40.00;21.15;;;4.40;99.90;;;;;;5113715;28;20023;-66
2020/12/06 05:09:22;;;;;;;40.63;22.35;;;4.50;99.90;;;;;;5113348;28;20524;-66
2020/12/06 05:11:47;;;;;;;39.67;21.88;;;4.40;99.90;;;;;;5095179;28;20088;-66
2020/12/06 05:14:13;;;;;;;40.50;21.37;;;4.40;99.90;;;;;;5095071;28;20433;-67
2020/12/06 05:16:40;;;;;;;42.63;22.53;;;4.30;99.90;;;;;;5095758;28;20088;-66
2020/12/06 05:19:07;;;;;;;39.17;20.70;;;4.50;99.90;;;;;;5113401;28;20020;-66
2020/12/06 05:21:41;;;;;;;41.53;21.38;;;4.40;99.90;;;;;;5113513;28;20094;-66
2020/12/06 05:24:07;;;;;;;40.83;21.67;;;4.40;99.90;;;;;;5114437;28;20028;-66
2020/12/06 05:26:33;;;;;;;37.08;20.23;;;4.40;99.90;;;;;;5114096;28;20035;-66
2020/12/06 05:29:00;;;;;;;41.50;20.63;;;4.40;99.90;;;;;;5099289;28;20047;-66
2020/12/06 05:31:26;;;;;;;39.50;20.38;;;4.30;99.90;;;;;;5116519;28;20168;-66
2020/12/06 05:33:53;;;;;;;37.45;20.33;;;4.20;99.90;;;;;;5102401;28;20050;-65
2020/12/06 05:36:19;;;;;;;36.70;19.50;;;4.20;99.90;;;;;;5097583;28;20519;-65
2020/12/06 05:38:45;;;;;;;36.25;19.52;;;4.30;99.90;;;;;;5117248;28;20136;-66
2020/12/06 05:41:11;;;;;;;36.13;18.63;;;4.40;99.90;;;;;;5098934;28;20419;-66
2020/12/06 05:43:37;;;;;;;34.80;19.77;;;4.40;99.90;;;;;;5117033;28;20058;-66
2020/12/06 05:46:11;;;;;;;32.75;18.33;;;4.40;99.90;;;;;;5098747;28;20072;-66
2020/12/06 05:48:38;;;;;;;33.50;18.38;;;4.40;99.90;;;;;;5116833;28;20027;-66
2020/12/06 05:51:04;;;;;;;34.53;19.00;;;4.40;99.90;;;;;;5098572;28;20023;-66
2020/12/06 05:53:31;;;;;;;33.17;17.90;;;4.40;99.90;;;;;;5116989;28;20020;-66
2020/12/06 05:56:17;;;;;;;36.78;18.90;;;4.40;99.90;;;;;;5098486;28;20419;-65
2020/12/06 05:58:44;;;;;;;35.95;18.90;;;4.40;99.90;;;;;;5116896;28;20019;-66
2020/12/06 06:01:14;;;;;;;35.92;18.50;;;4.40;99.90;;;;;;5098601;28;20102;-66
2020/12/06 06:03:45;;;;;;;38.22;19.10;;;4.40;99.90;;;;;;5117117;28;20446;-65
2020/12/06 06:06:25;;;;;;;30.60;17.95;;;4.60;99.90;;;;;;5116628;28;20471;-66
2020/12/06 06:08:59;;;;;;;32.00;18.40;;;4.60;99.90;;;;;;5116485;28;20035;-65
2020/12/06 06:11:29;;;;;;;36.13;18.67;;;4.60;99.90;;;;;;5116835;28;20023;-65
2020/12/06 06:14:08;;;;;;;35.00;18.70;;;4.50;99.90;;;;;;5116747;28;20028;-65
2020/12/06 06:16:35;;;;;;;37.20;19.48;;;4.50;99.90;;;;;;5116470;28;20019;-65
2020/12/06 06:19:05;;;;;;;39.17;19.60;;;4.50;99.90;;;;;;5116396;28;20376;-65
2020/12/06 06:21:38;;;;;;;36.50;19.25;;;4.40;99.90;;;;;;5116666;28;20468;-65
2020/12/06 06:24:10;;;;;;;36.05;20.05;;;4.40;99.90;;;;;;5116588;28;20410;-65
2020/12/06 06:26:38;;;;;;;38.17;18.67;;;4.40;99.90;;;;;;5097753;28;20019;-65
2020/12/06 06:29:14;;;;;;;34.53;19.02;;;4.30;99.90;;;;;;5116180;28;20391;-66
2020/12/06 06:31:43;;;;;;;36.13;18.60;;;4.40;99.90;;;;;;5097687;28;20030;-66
2020/12/06 06:34:08;;;;;;;36.58;18.33;;;4.40;99.90;;;;;;5116144;28;20024;-66
2020/12/06 06:36:35;;;;;;;35.03;18.17;;;4.40;99.90;;;;;;5116260;28;20433;-65
2020/12/06 06:39:02;;;;;;;;;;;4.40;99.90;;;;;;5116461;28;20015;-66
2020/12/06 06:41:28;;;;;;;36.42;18.40;;;4.40;99.90;;;;;;5116472;28;19942;-66
2020/12/06 06:44:02;;;;;;;41.90;20.63;;;4.40;99.90;;;;;;5098283;28;20027;-66
2020/12/06 06:46:37;;;;;;;45.95;21.75;;;4.50;99.90;;;;;;5115932;28;20020;-66
2020/12/06 06:49:12;;;;;;;42.72;22.17;;;4.50;99.90;;;;;;5114777;28;20031;-66
2020/12/06 06:51:50;;;;;;;44.35;21.30;;;4.60;99.90;;;;;;5116057;28;20030;-66
2020/12/06 06:54:25;;;;;;;46.83;22.05;;;4.60;99.90;;;;;;5115748;28;20031;-67
2020/12/06 06:56:52;;;;;;;49.58;22.45;;;4.60;99.90;;;;;;5097046;28;20027;-66
2020/12/06 06:59:54;;;;;;;46.25;22.10;;;4.50;99.90;;;;;;5097228;28;20016;-66
2020/12/06 07:02:30;;;;;;;47.40;21.58;;;4.50;99.90;;;;;;5072677;28;20106;-66
2020/12/06 07:04:55;;;;;;;45.40;22.08;;;4.70;99.90;;;;;;5115255;28;20016;-66
2020/12/06 07:07:39;;;;;;;47.00;22.37;;;4.80;99.90;;;;;;5115480;28;20066;-66
2020/12/06 07:10:07;;;;;;;48.58;22.55;;;4.80;99.90;;;;;;5115747;28;20435;-66
2020/12/06 07:12:45;;;;;;;49.88;22.80;;;4.70;99.90;;;;;;5115051;28;20469;-66
2020/12/06 07:15:12;;;;;;;46.03;21.45;;;4.60;99.90;;;;;;5115522;28;20468;-66
2020/12/06 07:17:38;;;;;;;;;;;4.70;99.90;;;;;;5097612;28;20031;-66
2020/12/06 07:20:06;;;;;;;50.13;22.20;;;4.60;99.90;;;;;;5115283;28;19973;-66
2020/12/06 07:22:32;;;;;;;49.83;22.45;;;4.60;99.90;;;;;;5115038;28;20019;-66
2020/12/06 07:24:58;;;;;;;52.10;22.60;;;4.50;99.90;;;;;;5114864;28;20104;-66
2020/12/06 07:27:24;;;;;;;69.47;31.52;;;4.50;99.90;;;;;;5096735;28;20115;-66
2020/12/06 07:29:49;;;;;;;54.75;24.02;;;4.50;99.90;;;;;;5115019;28;20015;-66
2020/12/06 07:32:15;;;;;;;50.80;23.17;;;4.40;99.90;;;;;;5114957;28;20035;-66
2020/12/06 07:34:41;;;;;;;47.63;22.50;;;4.50;99.90;;;;;;5114638;28;20460;-66
2020/12/06 07:37:08;;;;;;;51.77;20.87;;;4.60;99.90;;;;;;5114682;28;20114;-66
2020/12/06 07:39:40;;;;;;;;;;;4.60;99.90;;;;;;5115122;28;20016;-66
2020/12/06 07:42:05;;;;;;;50.90;21.63;;;4.60;99.90;;;;;;5096438;28;19903;-66
2020/12/06 07:44:31;;;;;;;51.20;21.83;;;4.50;99.90;;;;;;5114624;28;20498;-66
2020/12/06 07:47:00;;;;;;;49.53;21.23;;;4.40;99.90;;;;;;5114681;28;20024;-66
2020/12/06 07:49:26;;;;;;;52.88;22.60;;;4.30;99.90;;;;;;5114997;28;20028;-66
2020/12/06 07:51:51;;;;;;;65.40;23.70;;;4.30;99.90;;;;;;5115766;28;20029;-67
2020/12/06 07:54:17;;;;;;;62.00;24.47;;;4.20;99.90;;;;;;5115913;28;20027;-66
2020/12/06 07:56:55;;;;;;;61.10;25.80;;;4.20;99.90;;;;;;5115424;28;20107;-66
2020/12/06 07:59:23;;;;;;;60.47;26.20;;;4.30;99.90;;;;;;5114713;28;20043;-66
2020/12/06 08:01:50;;;;;;;55.55;23.23;;;4.20;99.90;;;;;;5114790;28;20051;-66
2020/12/06 08:04:26;;;;;;;59.42;23.80;;;4.20;99.90;;;;;;5096360;28;20043;-66
2020/12/06 08:07:09;;;;;;;60.83;26.92;;;4.20;99.90;;;;;;5115632;28;20024;-66
2020/12/06 08:09:38;;;;;;;58.63;24.63;;;4.20;99.90;;;;;;5117297;28;20028;-66
2020/12/06 08:12:05;;;;;;;53.58;23.90;;;4.30;99.90;;;;;;5116998;28;20067;-66
2020/12/06 08:14:31;;;;;;;53.92;23.63;;;4.20;99.90;;;;;;5115133;28;20028;-66
2020/12/06 08:17:03;;;;;;;54.37;23.17;;;4.30;99.90;;;;;;5097593;28;20066;-67
2020/12/06 08:19:29;;;;;;;49.15;21.25;;;4.40;99.90;;;;;;5116886;28;20201;-67
2020/12/06 08:22:03;;;;;;;48.30;21.33;;;4.40;99.90;;;;;;5115311;28;20373;-67
2020/12/06 08:24:30;;;;;;;48.03;22.63;;;4.40;99.90;;;;;;5096629;28;20396;-65
2020/12/06 08:26:57;;;;;;;48.33;21.98;;;4.40;99.90;;;;;;5114014;28;20057;-64
2020/12/06 08:29:42;;;;;;;;;;;4.40;99.90;;;;;;5115260;28;20027;-64
2020/12/06 08:32:10;;;;;;;47.78;20.95;;;4.40;99.90;;;;;;5114758;28;19903;-65
2020/12/06 08:34:36;;;;;;;50.40;22.83;;;4.40;99.90;;;;;;5114407;28;20043;-64
2020/12/06 08:37:19;;;;;;;48.38;23.08;;;4.40;99.90;;;;;;5113877;28;20063;-66
2020/12/06 08:39:46;;;;;;;46.88;20.92;;;4.60;99.90;;;;;;5113634;28;20051;-66
2020/12/06 08:42:16;;;;;;;37.03;18.25;;;4.60;99.90;;;;;;5114060;28;20459;-66
2020/12/06 08:45:15;;;;;;;39.97;17.92;;;4.60;99.90;;;;;;5113865;28;20020;-66
2020/12/06 08:47:43;;;;;;;40.72;18.02;;;4.50;99.90;;;;;;5068921;28;20557;-66
2020/12/06 08:50:13;;;;;;;40.95;18.52;;;4.50;99.90;;;;;;5113682;28;20027;-66
2020/12/06 08:52:40;;;;;;;40.03;19.17;;;4.60;99.90;;;;;;5113760;28;20365;-66
2020/12/06 08:55:24;;;;;;;40.13;19.63;;;4.60;99.90;;;;;;5113574;28;20020;-66
2020/12/06 08:57:49;;;;;;;36.45;17.27;;;4.70;99.90;;;;;;5113590;28;20111;-66
2020/12/06 09:00:15;;;;;;;35.13;17.27;;;4.70;99.90;;;;;;5095355;28;20469;-66
2020/12/06 09:02:40;;;;;;;38.83;18.27;;;4.80;99.90;;;;;;5113524;28;20019;-66
2020/12/06 09:05:07;;;;;;;36.87;18.00;;;4.80;99.90;;;;;;5113524;28;20024;-66
2020/12/06 09:07:32;;;;;;;33.75;17.08;;;4.90;99.90;;;;;;5113356;28;20024;-66
2020/12/06 09:09:58;;;;;;;32.47;17.10;;;4.90;99.90;;;;;;5113399;28;20096;-66
2020/12/06 09:12:24;;;;;;;35.90;17.67;;;4.90;99.90;;;;;;5114867;28;20016;-71
2020/12/06 09:14:49;;;;;;;36.57;17.90;;;4.90;99.90;;;;;;5117331;28;20031;-65
2020/12/06 09:17:15;;;;;;;35.03;16.80;;;4.80;99.90;;;;;;5117683;28;20066;-65
2020/12/06 09:19:40;;;;;;;36.27;17.53;;;4.80;99.90;;;;;;5117803;28;20074;-62
2020/12/06 09:23:58;;;;;;;34.28;16.70;;;4.80;99.90;;;;;;5132605;27;20647;-71
2020/12/06 09:26:24;;;;;;;30.10;15.50;;;4.90;99.90;;;;;;5131697;28;20498;-71
2020/12/06 09:28:50;;;;;;;33.03;17.13;;;4.90;99.90;;;;;;5130381;28;20023;-75
2020/12/06 09:31:19;;;;;;;30.90;16.70;;;4.80;99.90;;;;;;5130449;28;20030;-72
2020/12/06 09:33:44;;;;;;;39.13;19.63;;;4.80;99.90;;;;;;5131859;27;20047;-71
2020/12/06 09:36:10;;;;;;;35.10;17.13;;;4.80;99.90;;;;;;5131473;27;20038;-70
2020/12/06 09:38:36;;;;;;;34.43;17.43;;;4.70;99.90;;;;;;5131666;27;20464;-66
2020/12/06 09:41:01;;;;;;;33.63;17.00;;;4.70;99.90;;;;;;5131654;27;20023;-64
2020/12/06 09:43:27;;;;;;;37.60;17.47;;;4.70;99.90;;;;;;5130310;28;20016;-72
2020/12/06 09:45:52;;;;;;;35.30;18.17;;;4.80;99.90;;;;;;5130307;28;20020;-71
2020/12/06 09:48:18;;;;;;;34.53;17.37;;;4.80;99.90;;;;;;5132540;28;20460;-76
2020/12/06 09:50:44;;;;;;;31.60;16.73;;;4.90;99.90;;;;;;5133371;27;20074;-74
2020/12/06 09:53:10;;;;;;;31.87;16.93;;;4.90;99.90;;;;;;5131613;27;20019;-72
2020/12/06 09:55:35;;;;;;;31.57;16.73;;;4.90;99.90;;;;;;5130044;28;20471;-72
2020/12/06 09:58:01;;;;;;;27.10;15.37;;;4.90;99.90;;;;;;5130138;28;20034;-70
2020/12/06 10:00:27;;;;;;;28.27;14.63;;;5.00;99.90;;;;;;5129739;28;20030;-68
2020/12/06 10:02:53;;;;;;;22.57;13.63;;;5.00;99.90;;;;;;5129618;28;20126;-69
2020/12/06 10:05:19;;;;;;;26.38;14.48;;;5.00;99.90;;;;;;5129953;28;20030;-67
2020/12/06 10:07:44;;;;;;;24.47;13.90;;;5.00;99.90;;;;;;5129824;28;20118;-67
2020/12/06 10:10:10;;;;;;;21.30;12.87;;;5.00;99.90;;;;;;5131367;27;20486;-66
2020/12/06 10:12:35;;;;;;;27.60;15.60;;;5.10;99.90;;;;;;5131086;27;20035;-65
2020/12/06 10:15:03;;;;;;;20.20;12.23;;;5.10;99.90;;;;;;5131992;27;20524;-66
2020/12/06 10:17:30;;;;;;;22.33;13.00;;;5.10;99.90;;;;;;5129609;28;20019;-66
2020/12/06 10:19:55;;;;;;;22.25;13.02;;;5.10;99.90;;;;;;5130718;27;20077;-66
2020/12/06 10:22:21;;;;;;;21.57;12.80;;;5.10;99.90;;;;;;5130459;27;20070;-67
2020/12/06 10:24:46;;;;;;;19.83;12.77;;;5.00;99.90;;;;;;5130743;27;20019;-66
2020/12/06 10:27:12;;;;;;;22.37;13.77;;;5.10;99.90;;;;;;5130880;27;20428;-66
2020/12/06 10:29:38;;;;;;;20.90;12.70;;;5.00;99.90;;;;;;5130450;27;20098;-64
2020/12/06 10:32:04;;;;;;;20.23;12.93;;;5.10;99.90;;;;;;5129330;28;20024;-64
2020/12/06 10:34:29;;;;;;;20.57;12.70;;;5.10;99.90;;;;;;5121593;27;20515;-64
2020/12/06 10:36:57;;;;;;;22.43;13.07;;;5.20;99.90;;;;;;5116764;28;20496;-64
2020/12/06 10:39:24;;;;;;;22.70;13.85;;;5.20;99.90;;;;;;5116849;28;20023;-62
2020/12/06 10:41:54;;;;;;;21.63;13.57;;;5.20;99.90;;;;;;5116676;28;20028;-64
2020/12/06 10:44:20;;;;;;;21.48;12.90;;;5.30;99.90;;;;;;5117009;28;20024;-64
2020/12/06 10:46:46;;;;;;;22.80;13.43;;;5.20;99.90;;;;;;5117390;28;20422;-64
2020/12/06 10:49:13;;;;;;;22.33;12.88;;;5.40;99.90;;;;;;5117377;28;20024;-63
2020/12/06 10:51:41;;;;;;;19.75;12.35;;;5.40;99.90;;;;;;5117681;28;20023;-64
2020/12/06 10:54:07;;;;;;;20.83;13.52;;;5.30;99.90;;;;;;5116282;28;20442;-63
2020/12/06 10:56:33;;;;;;;21.13;13.48;;;5.30;99.90;;;;;;5117755;27;20012;-63
2020/12/06 10:58:59;;;;;;;22.57;14.03;;;5.20;99.90;;;;;;5116666;28;20024;-64
2020/12/06 11:01:28;;;;;;;21.33;12.93;;;5.20;99.90;;;;;;5116503;28;20016;-64
2020/12/06 11:03:54;;;;;;;24.17;14.55;;;5.20;99.90;;;;;;5116151;28;20085;-62
2020/12/06 11:06:21;;;;;;;18.97;12.23;;;5.20;99.90;;;;;;5117315;28;20399;-64
2020/12/06 11:08:47;;;;;;;;;;;5.20;99.90;;;;;;5116709;27;20634;-64
2020/12/06 11:11:14;;;;;;;23.10;13.20;;;5.20;99.90;;;;;;5116357;28;19904;-64
2020/12/06 11:13:40;;;;;;;24.60;14.30;;;5.20;99.90;;;;;;5116322;28;20028;-64
2020/12/06 11:16:06;;;;;;;25.15;14.50;;;5.20;99.90;;;;;;5117168;28;20076;-65
2020/12/06 11:18:31;;;;;;;23.37;14.17;;;5.20;99.90;;;;;;5114823;28;20027;-62
2020/12/06 11:20:57;;;;;;;22.03;13.57;;;5.20;99.90;;;;;;5114818;28;20483;-63
2020/12/06 11:23:22;;;;;;;23.33;14.60;;;5.20;99.90;;;;;;5115812;28;20027;-66
2020/12/06 11:25:48;;;;;;;22.50;14.13;;;5.20;99.90;;;;;;5114634;28;20051;-65
2020/12/06 11:28:14;;;;;;;23.90;14.53;;;5.20;99.90;;;;;;5115888;28;20023;-63
2020/12/06 11:30:39;;;;;;;21.70;13.87;;;5.20;99.90;;;;;;5116081;28;20020;-67
2020/12/06 11:33:05;;;;;;;26.00;15.33;;;5.20;99.90;;;;;;5114201;28;20037;-66
2020/12/06 11:35:31;;;;;;;25.60;15.60;;;5.20;99.90;;;;;;5115983;28;20098;-65
2020/12/06 11:37:56;;;;;;;25.83;15.57;;;5.20;99.90;;;;;;5115980;28;20124;-67
2020/12/06 11:40:22;;;;;;;29.20;17.03;;;5.20;99.90;;;;;;5116833;28;20092;-65
2020/12/06 11:42:47;;;;;;;29.83;16.37;;;5.30;99.90;;;;;;5115393;28;20483;-66
2020/12/06 11:45:13;;;;;;;31.60;17.30;;;5.30;99.90;;;;;;5114921;28;20047;-66
2020/12/06 11:47:39;;;;;;;34.63;19.03;;;5.40;99.90;;;;;;5114103;28;20507;-64
2020/12/06 11:50:05;;;;;;;35.35;19.00;;;5.40;99.90;;;;;;5114417;28;20575;-64
2020/12/06 11:52:31;;;;;;;33.87;16.83;;;5.50;99.90;;;;;;5115699;28;20508;-65
2020/12/06 11:54:56;;;;;;;34.92;18.88;;;5.50;99.90;;;;;;5115329;28;20051;-66
2020/12/06 11:57:22;;;;;;;33.63;18.20;;;5.50;99.90;;;;;;5115624;28;20103;-64
2020/12/06 11:59:48;;;;;;;37.50;19.73;;;5.60;99.90;;;;;;5114407;28;20031;-63
2020/12/06 12:02:13;;;;;;;35.25;18.70;;;5.50;99.90;;;;;;5115257;28;20357;-64
2020/12/06 12:04:39;;;;;;;37.63;20.57;;;5.50;99.90;;;;;;5114951;28;20026;-64
2020/12/06 12:07:04;;;;;;;41.10;21.00;;;5.40;99.90;;;;;;5113867;28;20102;-66
2020/12/06 12:09:30;;;;;;;42.00;21.97;;;5.40;99.90;;;;;;5113541;28;20027;-66
2020/12/06 12:11:56;;;;;;;41.73;21.80;;;5.40;99.90;;;;;;5113514;28;20023;-66
2020/12/06 12:14:22;;;;;;;37.38;20.75;;;5.40;99.90;;;;;;5115011;28;20027;-66
2020/12/06 12:16:48;;;;;;;40.67;22.17;;;5.40;99.90;;;;;;5115401;28;20111;-65
2020/12/06 12:19:13;;;;;;;48.20;23.47;;;5.30;99.90;;;;;;5113512;28;20607;-66
2020/12/06 12:21:39;;;;;;;48.80;24.70;;;5.30;99.90;;;;;;5113947;28;20024;-66
2020/12/06 12:24:05;;;;;;;48.50;23.63;;;5.30;99.90;;;;;;5111046;28;20028;-65
2020/12/06 12:26:31;;;;;;;51.23;26.17;;;5.30;99.90;;;;;;5113077;28;20094;-65
2020/12/06 12:28:57;;;;;;;45.80;23.70;;;5.40;99.90;;;;;;5112914;28;20024;-65
2020/12/06 12:31:23;;;;;;;45.73;23.77;;;5.40;99.90;;;;;;5114471;28;20069;-65
2020/12/06 12:33:49;;;;;;;44.97;23.97;;;5.50;99.90;;;;;;5114484;28;20495;-66
2020/12/06 12:36:15;;;;;;;43.40;23.25;;;5.50;99.90;;;;;;5114397;28;20357;-65
2020/12/06 12:38:40;;;;;;;47.80;23.17;;;5.50;99.90;;;;;;5114711;28;20030;-65
2020/12/06 12:41:06;;;;;;;42.53;23.23;;;5.60;99.90;;;;;;5114375;28;20415;-66